sensor_id;sensor_type;location;lat;lon;timestamp;P1;durP1;ratioP1;P2;durP2;ratioP2
35394;SDS011;21500;45.308;9.488;2022-10-31T00:02:26;34.53;;;21.08;;
35394;SDS011;21500;45.308;9.488;2022-10-31T00:04:53;41.38;;;22.55;;
35394;SDS011;21500;45.308;9.488;2022-10-31T00:09:54;30.58;;;22.33;;
35394;SDS011;21500;45.308;9.488;2022-10-31T00:12:31;29.58;;;21.10;;
35394;SDS011;21500;45.308;9.488;2022-10-31T00:15:00;31.42;;;22.30;;
35394;SDS011;21500;45.308;9.488;2022-10-31T00:17:34;41.03;;;23.10;;
35394;SDS011;21500;45.308;9.488;2022-10-31T00:20:05;30.05;;;21.70;;
35394;SDS011;21500;45.308;9.488;2022-10-31T00:22:38;34.63;;;23.27;;
35394;SDS011;21500;45.308;9.488;2022-10-31T00:25:29;31.45;;;22.58;;
35394;SDS011;21500;45.308;9.488;2022-10-31T00:28:02;33.00;;;21.48;;
35394;SDS011;21500;45.308;9.488;2022-10-31T00:30:33;34.25;;;23.02;;
35394;SDS011;21500;45.308;9.488;2022-10-31T00:33:07;28.92;;;21.15;;
35394;SDS011;21500;45.308;9.488;2022-10-31T00:35:36;28.92;;;21.67;;
35394;SDS011;21500;45.308;9.488;2022-10-31T00:38:06;31.48;;;22.17;;
35394;SDS011;21500;45.308;9.488;2022-10-31T00:40:32;33.42;;;20.70;;
35394;SDS011;21500;45.308;9.488;2022-10-31T00:42:59;30.80;;;22.30;;
35394;SDS011;21500;45.308;9.488;2022-10-31T00:45:26;28.52;;;21.27;;
35394;SDS011;21500;45.308;9.488;2022-10-31T00:47:53;36.90;;;21.83;;
35394;SDS011;21500;45.308;9.488;2022-10-31T00:50:22;35.50;;;22.02;;
35394;SDS011;21500;45.308;9.488;2022-10-31T00:52:48;29.88;;;19.75;;
35394;SDS011;21500;45.308;9.488;2022-10-31T00:55:14;32.58;;;21.33;;
35394;SDS011;21500;45.308;9.488;2022-10-31T00:57:41;27.45;;;19.63;;
35394;SDS011;21500;45.308;9.488;2022-10-31T01:00:07;34.95;;;20.58;;
35394;SDS011;21500;45.308;9.488;2022-10-31T01:02:34;33.22;;;21.40;;
35394;SDS011;21500;45.308;9.488;2022-10-31T01:05:03;29.15;;;21.98;;
35394;SDS011;21500;45.308;9.488;2022-10-31T01:07:35;28.33;;;20.63;;
35394;SDS011;21500;45.308;9.488;2022-10-31T01:10:01;29.85;;;18.65;;
35394;SDS011;21500;45.308;9.488;2022-10-31T01:12:29;35.75;;;20.48;;
35394;SDS011;21500;45.308;9.488;2022-10-31T01:15:07;29.05;;;18.92;;
35394;SDS011;21500;45.308;9.488;2022-10-31T01:17:37;29.88;;;20.95;;
35394;SDS011;21500;45.308;9.488;2022-10-31T01:20:10;28.52;;;19.48;;
35394;SDS011;21500;45.308;9.488;2022-10-31T01:22:37;28.17;;;19.08;;
35394;SDS011;21500;45.308;9.488;2022-10-31T01:25:05;29.52;;;20.63;;
35394;SDS011;21500;45.308;9.488;2022-10-31T01:27:32;30.30;;;22.15;;
35394;SDS011;21500;45.308;9.488;2022-10-31T01:29:58;33.75;;;22.45;;
35394;SDS011;21500;45.308;9.488;2022-10-31T01:32:24;38.88;;;24.35;;
35394;SDS011;21500;45.308;9.488;2022-10-31T01:34:57;40.28;;;26.48;;
35394;SDS011;21500;45.308;9.488;2022-10-31T01:37:23;39.45;;;27.23;;
35394;SDS011;21500;45.308;9.488;2022-10-31T01:39:50;42.83;;;27.10;;
35394;SDS011;21500;45.308;9.488;2022-10-31T01:42:19;38.28;;;27.23;;
35394;SDS011;21500;45.308;9.488;2022-10-31T01:44:56;40.78;;;27.13;;
35394;SDS011;21500;45.308;9.488;2022-10-31T01:47:30;36.97;;;25.80;;
35394;SDS011;21500;45.308;9.488;2022-10-31T01:50:10;30.05;;;22.73;;
35394;SDS011;21500;45.308;9.488;2022-10-31T01:52:50;32.83;;;22.88;;
35394;SDS011;21500;45.308;9.488;2022-10-31T01:55:20;30.58;;;23.02;;
35394;SDS011;21500;45.308;9.488;2022-10-31T01:58:01;32.47;;;24.57;;
35394;SDS011;21500;45.308;9.488;2022-10-31T02:00:34;40.40;;;26.95;;
35394;SDS011;21500;45.308;9.488;2022-10-31T02:03:02;46.42;;;28.30;;
35394;SDS011;21500;45.308;9.488;2022-10-31T02:05:28;38.65;;;27.48;;
35394;SDS011;21500;45.308;9.488;2022-10-31T02:08:08;46.83;;;31.00;;
35394;SDS011;21500;45.308;9.488;2022-10-31T02:10:48;50.88;;;32.10;;
35394;SDS011;21500;45.308;9.488;2022-10-31T02:13:17;46.80;;;32.47;;
35394;SDS011;21500;45.308;9.488;2022-10-31T02:15:51;45.28;;;33.70;;
35394;SDS011;21500;45.308;9.488;2022-10-31T02:18:19;46.03;;;32.28;;
35394;SDS011;21500;45.308;9.488;2022-10-31T02:34:14;45.13;;;30.05;;
35394;SDS011;21500;45.308;9.488;2022-10-31T02:37:01;44.92;;;30.58;;
35394;SDS011;21500;45.308;9.488;2022-10-31T02:39:37;46.38;;;29.67;;
35394;SDS011;21500;45.308;9.488;2022-10-31T02:42:28;44.28;;;28.83;;
35394;SDS011;21500;45.308;9.488;2022-10-31T02:45:12;43.65;;;29.58;;
35394;SDS011;21500;45.308;9.488;2022-10-31T02:47:49;45.17;;;31.95;;
35394;SDS011;21500;45.308;9.488;2022-10-31T02:50:22;41.15;;;28.00;;
35394;SDS011;21500;45.308;9.488;2022-10-31T02:52:55;36.75;;;28.85;;
35394;SDS011;21500;45.308;9.488;2022-10-31T02:57:56;41.85;;;28.25;;
35394;SDS011;21500;45.308;9.488;2022-10-31T03:00:25;38.72;;;26.45;;
35394;SDS011;21500;45.308;9.488;2022-10-31T03:05:26;35.97;;;26.98;;
35394;SDS011;21500;45.308;9.488;2022-10-31T03:08:16;37.03;;;25.45;;
35394;SDS011;21500;45.308;9.488;2022-10-31T03:11:11;38.40;;;26.90;;
35394;SDS011;21500;45.308;9.488;2022-10-31T03:16:18;37.47;;;26.40;;
35394;SDS011;21500;45.308;9.488;2022-10-31T03:18:57;39.55;;;26.60;;
35394;SDS011;21500;45.308;9.488;2022-10-31T03:24:04;36.38;;;27.23;;
35394;SDS011;21500;45.308;9.488;2022-10-31T03:26:35;40.10;;;26.60;;
35394;SDS011;21500;45.308;9.488;2022-10-31T03:29:07;39.95;;;28.05;;
35394;SDS011;21500;45.308;9.488;2022-10-31T03:31:46;38.22;;;27.23;;
35394;SDS011;21500;45.308;9.488;2022-10-31T03:34:46;35.90;;;26.83;;
35394;SDS011;21500;45.308;9.488;2022-10-31T03:38:24;33.97;;;25.67;;
35394;SDS011;21500;45.308;9.488;2022-10-31T03:41:23;35.00;;;26.50;;
35394;SDS011;21500;45.308;9.488;2022-10-31T03:48:53;39.92;;;26.77;;
35394;SDS011;21500;45.308;9.488;2022-10-31T03:59:45;36.83;;;27.83;;
35394;SDS011;21500;45.308;9.488;2022-10-31T04:06:14;42.53;;;27.90;;
35394;SDS011;21500;45.308;9.488;2022-10-31T04:08:56;35.63;;;25.65;;
35394;SDS011;21500;45.308;9.488;2022-10-31T04:11:27;39.15;;;28.45;;
35394;SDS011;21500;45.308;9.488;2022-10-31T04:14:23;35.28;;;25.25;;
35394;SDS011;21500;45.308;9.488;2022-10-31T04:16:51;39.75;;;28.52;;
35394;SDS011;21500;45.308;9.488;2022-10-31T04:19:21;35.88;;;28.05;;
35394;SDS011;21500;45.308;9.488;2022-10-31T04:21:46;44.55;;;28.45;;
35394;SDS011;21500;45.308;9.488;2022-10-31T04:24:12;41.08;;;28.90;;
35394;SDS011;21500;45.308;9.488;2022-10-31T04:26:39;42.20;;;30.20;;
35394;SDS011;21500;45.308;9.488;2022-10-31T04:29:06;38.83;;;28.02;;
35394;SDS011;21500;45.308;9.488;2022-10-31T04:31:31;40.80;;;29.23;;
35394;SDS011;21500;45.308;9.488;2022-10-31T04:33:57;43.50;;;31.05;;
35394;SDS011;21500;45.308;9.488;2022-10-31T04:36:24;37.40;;;27.55;;
35394;SDS011;21500;45.308;9.488;2022-10-31T04:38:52;40.65;;;30.40;;
35394;SDS011;21500;45.308;9.488;2022-10-31T04:41:32;38.27;;;27.07;;
35394;SDS011;21500;45.308;9.488;2022-10-31T04:44:05;49.22;;;29.70;;
35394;SDS011;21500;45.308;9.488;2022-10-31T04:46:33;45.03;;;30.75;;
35394;SDS011;21500;45.308;9.488;2022-10-31T04:49:02;37.42;;;29.88;;
35394;SDS011;21500;45.308;9.488;2022-10-31T04:51:29;42.30;;;31.25;;
35394;SDS011;21500;45.308;9.488;2022-10-31T04:53:57;45.83;;;30.58;;
35394;SDS011;21500;45.308;9.488;2022-10-31T04:56:33;47.83;;;31.02;;
35394;SDS011;21500;45.308;9.488;2022-10-31T04:59:09;41.90;;;31.48;;
35394;SDS011;21500;45.308;9.488;2022-10-31T05:01:49;39.30;;;29.42;;
35394;SDS011;21500;45.308;9.488;2022-10-31T05:04:20;41.58;;;31.45;;
35394;SDS011;21500;45.308;9.488;2022-10-31T05:06:49;39.85;;;29.67;;
35394;SDS011;21500;45.308;9.488;2022-10-31T05:09:15;45.63;;;30.38;;
35394;SDS011;21500;45.308;9.488;2022-10-31T05:11:46;43.85;;;29.17;;
35394;SDS011;21500;45.308;9.488;2022-10-31T05:14:36;39.95;;;29.48;;
35394;SDS011;21500;45.308;9.488;2022-10-31T05:17:21;40.42;;;30.67;;
35394;SDS011;21500;45.308;9.488;2022-10-31T05:20:11;46.85;;;30.80;;
35394;SDS011;21500;45.308;9.488;2022-10-31T05:22:44;40.92;;;30.42;;
35394;SDS011;21500;45.308;9.488;2022-10-31T05:25:17;43.25;;;30.92;;
35394;SDS011;21500;45.308;9.488;2022-10-31T05:27:45;43.22;;;29.90;;
35394;SDS011;21500;45.308;9.488;2022-10-31T05:30:13;38.72;;;28.80;;
35394;SDS011;21500;45.308;9.488;2022-10-31T05:32:47;37.35;;;27.13;;
35394;SDS011;21500;45.308;9.488;2022-10-31T05:35:36;38.45;;;26.95;;
35394;SDS011;21500;45.308;9.488;2022-10-31T05:39:05;32.45;;;25.83;;
35394;SDS011;21500;45.308;9.488;2022-10-31T05:41:38;33.78;;;25.42;;
35394;SDS011;21500;45.308;9.488;2022-10-31T05:44:45;32.35;;;25.30;;
35394;SDS011;21500;45.308;9.488;2022-10-31T05:47:52;27.85;;;23.00;;
35394;SDS011;21500;45.308;9.488;2022-10-31T05:51:00;29.75;;;22.38;;
35394;SDS011;21500;45.308;9.488;2022-10-31T05:54:11;56.25;;;21.25;;
35394;SDS011;21500;45.308;9.488;2022-10-31T05:57:07;44.22;;;23.92;;
35394;SDS011;21500;45.308;9.488;2022-10-31T05:59:58;30.63;;;21.83;;
35394;SDS011;21500;45.308;9.488;2022-10-31T06:02:35;36.40;;;22.95;;
35394;SDS011;21500;45.308;9.488;2022-10-31T06:05:42;32.80;;;21.40;;
35394;SDS011;21500;45.308;9.488;2022-10-31T06:08:20;35.55;;;21.67;;
35394;SDS011;21500;45.308;9.488;2022-10-31T08:44:42;11.55;;;8.52;;
35394;SDS011;21500;45.308;9.488;2022-10-31T09:31:55;17.63;;;7.53;;
35394;SDS011;21500;45.308;9.488;2022-10-31T09:40:55;17.25;;;9.10;;
35394;SDS011;21500;45.308;9.488;2022-10-31T11:05:52;12.25;;;5.00;;
35394;SDS011;21500;45.308;9.488;2022-10-31T11:08:36;15.43;;;5.85;;
35394;SDS011;21500;45.308;9.488;2022-10-31T11:25:36;9.80;;;6.00;;
35394;SDS011;21500;45.308;9.488;2022-10-31T11:28:05;15.57;;;5.90;;
35394;SDS011;21500;45.308;9.488;2022-10-31T11:30:52;14.05;;;5.50;;
35394;SDS011;21500;45.308;9.488;2022-10-31T11:41:30;18.92;;;8.15;;
35394;SDS011;21500;45.308;9.488;2022-10-31T11:44:13;13.30;;;6.47;;
35394;SDS011;21500;45.308;9.488;2022-10-31T11:46:51;18.10;;;7.18;;
35394;SDS011;21500;45.308;9.488;2022-10-31T11:52:42;14.80;;;7.25;;
35394;SDS011;21500;45.308;9.488;2022-10-31T11:58:19;17.02;;;8.55;;
35394;SDS011;21500;45.308;9.488;2022-10-31T12:00:53;18.90;;;8.35;;
35394;SDS011;21500;45.308;9.488;2022-10-31T12:41:25;14.07;;;8.27;;
35394;SDS011;21500;45.308;9.488;2022-10-31T12:45:00;17.10;;;7.75;;
35394;SDS011;21500;45.308;9.488;2022-10-31T12:58:54;13.10;;;6.03;;
35394;SDS011;21500;45.308;9.488;2022-10-31T13:16:58;11.27;;;6.32;;
35394;SDS011;21500;45.308;9.488;2022-10-31T13:19:36;15.45;;;5.00;;
35394;SDS011;21500;45.308;9.488;2022-10-31T13:22:25;13.40;;;4.82;;
35394;SDS011;21500;45.308;9.488;2022-10-31T13:27:57;16.92;;;5.22;;
35394;SDS011;21500;45.308;9.488;2022-10-31T13:30:31;14.40;;;5.72;;
35394;SDS011;21500;45.308;9.488;2022-10-31T13:36:04;13.55;;;5.45;;
35394;SDS011;21500;45.308;9.488;2022-10-31T13:38:35;11.10;;;5.85;;
35394;SDS011;21500;45.308;9.488;2022-10-31T13:44:12;13.38;;;5.80;;
35394;SDS011;21500;45.308;9.488;2022-10-31T13:46:56;9.93;;;5.13;;
35394;SDS011;21500;45.308;9.488;2022-10-31T13:54:39;13.32;;;6.10;;
35394;SDS011;21500;45.308;9.488;2022-10-31T13:59:55;10.80;;;3.88;;
35394;SDS011;21500;45.308;9.488;2022-10-31T14:02:25;15.68;;;5.20;;
35394;SDS011;21500;45.308;9.488;2022-10-31T14:05:03;12.02;;;4.65;;
35394;SDS011;21500;45.308;9.488;2022-10-31T14:07:49;10.02;;;4.40;;
35394;SDS011;21500;45.308;9.488;2022-10-31T14:10:22;12.10;;;4.97;;
35394;SDS011;21500;45.308;9.488;2022-10-31T14:13:02;8.77;;;4.10;;
35394;SDS011;21500;45.308;9.488;2022-10-31T14:18:28;12.98;;;3.72;;
35394;SDS011;21500;45.308;9.488;2022-10-31T14:20:57;9.57;;;3.67;;
35394;SDS011;21500;45.308;9.488;2022-10-31T14:23:42;17.85;;;3.90;;
35394;SDS011;21500;45.308;9.488;2022-10-31T14:31:41;7.35;;;3.15;;
35394;SDS011;21500;45.308;9.488;2022-10-31T14:45:49;13.88;;;4.38;;
35394;SDS011;21500;45.308;9.488;2022-10-31T15:10:04;10.43;;;3.60;;
35394;SDS011;21500;45.308;9.488;2022-10-31T16:05:17;13.38;;;4.93;;
35394;SDS011;21500;45.308;9.488;2022-10-31T16:12:56;16.75;;;5.28;;
35394;SDS011;21500;45.308;9.488;2022-10-31T16:15:48;19.17;;;8.35;;
35394;SDS011;21500;45.308;9.488;2022-10-31T16:18:17;16.38;;;6.40;;
35394;SDS011;21500;45.308;9.488;2022-10-31T16:20:50;11.77;;;4.95;;
35394;SDS011;21500;45.308;9.488;2022-10-31T16:23:21;22.90;;;5.75;;
35394;SDS011;21500;45.308;9.488;2022-10-31T16:25:49;14.75;;;6.78;;
35394;SDS011;21500;45.308;9.488;2022-10-31T16:28:18;15.30;;;7.60;;
35394;SDS011;21500;45.308;9.488;2022-10-31T16:38:54;20.98;;;8.43;;
35394;SDS011;21500;45.308;9.488;2022-10-31T16:41:28;34.13;;;9.48;;
35394;SDS011;21500;45.308;9.488;2022-10-31T16:43:57;20.17;;;7.88;;
35394;SDS011;21500;45.308;9.488;2022-10-31T16:57:38;15.90;;;5.68;;
35394;SDS011;21500;45.308;9.488;2022-10-31T17:15:14;16.73;;;6.65;;
35394;SDS011;21500;45.308;9.488;2022-10-31T17:26:58;22.83;;;6.80;;
35394;SDS011;21500;45.308;9.488;2022-10-31T17:29:25;28.73;;;9.38;;
35394;SDS011;21500;45.308;9.488;2022-10-31T17:31:54;19.13;;;6.45;;
35394;SDS011;21500;45.308;9.488;2022-10-31T17:34:33;15.68;;;7.53;;
35394;SDS011;21500;45.308;9.488;2022-10-31T17:37:16;14.82;;;6.18;;
35394;SDS011;21500;45.308;9.488;2022-10-31T18:04:50;16.08;;;6.32;;
35394;SDS011;21500;45.308;9.488;2022-10-31T20:41:11;20.40;;;12.23;;
35394;SDS011;21500;45.308;9.488;2022-10-31T20:43:53;22.42;;;12.38;;
35394;SDS011;21500;45.308;9.488;2022-10-31T20:46:23;22.15;;;11.00;;
35394;SDS011;21500;45.308;9.488;2022-10-31T20:48:52;17.48;;;10.82;;
35394;SDS011;21500;45.308;9.488;2022-10-31T20:51:23;22.70;;;11.45;;
35394;SDS011;21500;45.308;9.488;2022-10-31T20:53:56;20.55;;;13.20;;
35394;SDS011;21500;45.308;9.488;2022-10-31T20:56:24;29.58;;;13.43;;
35394;SDS011;21500;45.308;9.488;2022-10-31T20:58:56;22.38;;;14.07;;
35394;SDS011;21500;45.308;9.488;2022-10-31T21:01:24;17.02;;;11.75;;
35394;SDS011;21500;45.308;9.488;2022-10-31T21:03:56;33.10;;;14.85;;
35394;SDS011;21500;45.308;9.488;2022-10-31T21:06:31;25.23;;;14.90;;
35394;SDS011;21500;45.308;9.488;2022-10-31T21:13:27;30.40;;;17.35;;
35394;SDS011;21500;45.308;9.488;2022-10-31T21:20:39;33.42;;;17.30;;
35394;SDS011;21500;45.308;9.488;2022-10-31T21:23:08;30.23;;;16.58;;
35394;SDS011;21500;45.308;9.488;2022-10-31T21:25:41;37.22;;;20.25;;
35394;SDS011;21500;45.308;9.488;2022-10-31T21:28:58;30.35;;;16.10;;
35394;SDS011;21500;45.308;9.488;2022-10-31T21:31:30;32.35;;;17.35;;
35394;SDS011;21500;45.308;9.488;2022-10-31T21:34:02;28.60;;;17.75;;
35394;SDS011;21500;45.308;9.488;2022-10-31T21:36:29;31.20;;;14.68;;
35394;SDS011;21500;45.308;9.488;2022-10-31T21:38:55;32.20;;;15.30;;
35394;SDS011;21500;45.308;9.488;2022-10-31T21:41:21;26.15;;;16.70;;
35394;SDS011;21500;45.308;9.488;2022-10-31T21:43:49;28.95;;;15.23;;
35394;SDS011;21500;45.308;9.488;2022-10-31T21:46:41;24.90;;;14.98;;
35394;SDS011;21500;45.308;9.488;2022-10-31T21:49:08;24.70;;;14.65;;
35394;SDS011;21500;45.308;9.488;2022-10-31T21:51:34;35.40;;;17.50;;
35394;SDS011;21500;45.308;9.488;2022-10-31T21:54:01;22.25;;;15.85;;
35394;SDS011;21500;45.308;9.488;2022-10-31T21:56:46;33.97;;;17.15;;
35394;SDS011;21500;45.308;9.488;2022-10-31T21:59:12;36.22;;;19.20;;
35394;SDS011;21500;45.308;9.488;2022-10-31T22:01:38;26.60;;;15.90;;
35394;SDS011;21500;45.308;9.488;2022-10-31T22:04:04;32.53;;;16.90;;
35394;SDS011;21500;45.308;9.488;2022-10-31T22:06:30;27.50;;;16.33;;
35394;SDS011;21500;45.308;9.488;2022-10-31T22:08:57;31.33;;;17.65;;
35394;SDS011;21500;45.308;9.488;2022-10-31T22:11:25;28.33;;;18.08;;
35394;SDS011;21500;45.308;9.488;2022-10-31T22:13:52;34.50;;;18.48;;
35394;SDS011;21500;45.308;9.488;2022-10-31T22:16:19;29.90;;;18.63;;
35394;SDS011;21500;45.308;9.488;2022-10-31T22:18:46;25.55;;;16.17;;
35394;SDS011;21500;45.308;9.488;2022-10-31T22:21:17;30.43;;;16.47;;
35394;SDS011;21500;45.308;9.488;2022-10-31T22:23:49;28.45;;;16.70;;
35394;SDS011;21500;45.308;9.488;2022-10-31T22:26:16;27.95;;;16.65;;
35394;SDS011;21500;45.308;9.488;2022-10-31T22:29:11;31.27;;;16.77;;
35394;SDS011;21500;45.308;9.488;2022-10-31T22:31:39;24.30;;;16.30;;
35394;SDS011;21500;45.308;9.488;2022-10-31T22:34:05;29.90;;;17.48;;
35394;SDS011;21500;45.308;9.488;2022-10-31T22:36:36;35.38;;;18.55;;
35394;SDS011;21500;45.308;9.488;2022-10-31T22:39:05;27.00;;;15.98;;
35394;SDS011;21500;45.308;9.488;2022-10-31T22:41:32;33.15;;;17.23;;
35394;SDS011;21500;45.308;9.488;2022-10-31T22:43:59;30.35;;;16.67;;
35394;SDS011;21500;45.308;9.488;2022-10-31T22:46:31;23.73;;;16.40;;
35394;SDS011;21500;45.308;9.488;2022-10-31T22:49:03;27.17;;;16.58;;
35394;SDS011;21500;45.308;9.488;2022-10-31T22:51:32;27.83;;;16.48;;
35394;SDS011;21500;45.308;9.488;2022-10-31T22:53:59;28.83;;;15.73;;
35394;SDS011;21500;45.308;9.488;2022-10-31T22:56:30;28.67;;;15.50;;
35394;SDS011;21500;45.308;9.488;2022-10-31T22:58:57;27.25;;;15.75;;
35394;SDS011;21500;45.308;9.488;2022-10-31T23:01:25;26.80;;;15.02;;
35394;SDS011;21500;45.308;9.488;2022-10-31T23:03:57;24.30;;;14.80;;
35394;SDS011;21500;45.308;9.488;2022-10-31T23:06:24;25.25;;;13.00;;
35394;SDS011;21500;45.308;9.488;2022-10-31T23:08:51;27.75;;;14.98;;
35394;SDS011;21500;45.308;9.488;2022-10-31T23:11:18;28.05;;;14.35;;
35394;SDS011;21500;45.308;9.488;2022-10-31T23:13:46;23.27;;;14.18;;
35394;SDS011;21500;45.308;9.488;2022-10-31T23:16:32;29.40;;;15.52;;
35394;SDS011;21500;45.308;9.488;2022-10-31T23:18:58;25.23;;;14.90;;
35394;SDS011;21500;45.308;9.488;2022-10-31T23:21:24;20.83;;;13.80;;
35394;SDS011;21500;45.308;9.488;2022-10-31T23:24:10;24.02;;;13.82;;
35394;SDS011;21500;45.308;9.488;2022-10-31T23:26:37;24.90;;;14.30;;
35394;SDS011;21500;45.308;9.488;2022-10-31T23:29:21;25.65;;;13.20;;
35394;SDS011;21500;45.308;9.488;2022-10-31T23:31:48;24.98;;;14.63;;
35394;SDS011;21500;45.308;9.488;2022-10-31T23:34:18;23.80;;;13.95;;
35394;SDS011;21500;45.308;9.488;2022-10-31T23:36:45;25.33;;;14.50;;
35394;SDS011;21500;45.308;9.488;2022-10-31T23:39:11;19.88;;;13.32;;
35394;SDS011;21500;45.308;9.488;2022-10-31T23:41:37;27.88;;;13.93;;
35394;SDS011;21500;45.308;9.488;2022-10-31T23:44:03;27.35;;;14.40;;
35394;SDS011;21500;45.308;9.488;2022-10-31T23:46:29;21.48;;;13.50;;
35394;SDS011;21500;45.308;9.488;2022-10-31T23:48:55;21.20;;;14.10;;
35394;SDS011;21500;45.308;9.488;2022-10-31T23:51:21;23.95;;;13.65;;
35394;SDS011;21500;45.308;9.488;2022-10-31T23:53:46;22.23;;;12.57;;
35394;SDS011;21500;45.308;9.488;2022-10-31T23:56:12;25.25;;;13.50;;
35394;SDS011;21500;45.308;9.488;2022-10-31T23:58:39;23.77;;;13.90;;
